sensor_id;sensor_type;location;lat;lon;timestamp;pressure;altitude;pressure_sealevel;temperature;humidity
10060;BME280;5069;49.306;8.636;2023-04-29T00:02:53;100148.53;;;13.37;100.00
10060;BME280;5069;49.306;8.636;2023-04-29T00:05:55;100149.59;;;13.33;100.00
10060;BME280;5069;49.306;8.636;2023-04-29T00:08:57;100146.84;;;13.17;100.00
10060;BME280;5069;49.306;8.636;2023-04-29T00:11:59;100143.69;;;13.09;100.00
10060;BME280;5069;49.306;8.636;2023-04-29T00:15:00;100149.97;;;13.07;100.00
10060;BME280;5069;49.306;8.636;2023-04-29T00:18:03;100156.97;;;13.08;100.00
10060;BME280;5069;49.306;8.636;2023-04-29T00:21:04;100147.31;;;13.07;100.00
10060;BME280;5069;49.306;8.636;2023-04-29T00:24:06;100150.91;;;13.06;100.00
10060;BME280;5069;49.306;8.636;2023-04-29T00:27:07;100155.41;;;13.04;100.00
10060;BME280;5069;49.306;8.636;2023-04-29T00:30:09;100157.28;;;13.02;100.00
10060;BME280;5069;49.306;8.636;2023-04-29T00:33:11;100155.56;;;13.01;100.00
10060;BME280;5069;49.306;8.636;2023-04-29T00:36:13;100157.28;;;13.02;100.00
10060;BME280;5069;49.306;8.636;2023-04-29T00:39:14;100155.72;;;12.98;100.00
10060;BME280;5069;49.306;8.636;2023-04-29T00:42:15;100155.72;;;12.98;100.00
10060;BME280;5069;49.306;8.636;2023-04-29T00:45:17;100165.50;;;12.96;100.00
10060;BME280;5069;49.306;8.636;2023-04-29T00:48:18;100154.13;;;12.94;100.00
10060;BME280;5069;49.306;8.636;2023-04-29T00:51:20;100159.13;;;13.00;100.00
10060;BME280;5069;49.306;8.636;2023-04-29T00:54:22;100164.28;;;13.03;100.00
10060;BME280;5069;49.306;8.636;2023-04-29T00:57:23;100156.97;;;13.08;100.00
10060;BME280;5069;49.306;8.636;2023-04-29T01:00:26;100174.59;;;13.09;100.00
10060;BME280;5069;49.306;8.636;2023-04-29T01:03:28;100169.16;;;13.12;100.00
10060;BME280;5069;49.306;8.636;2023-04-29T01:06:53;100167.16;;;13.17;100.00
10060;BME280;5069;49.306;8.636;2023-04-29T01:13:16;100166.38;;;13.15;100.00
10060;BME280;5069;49.306;8.636;2023-04-29T01:16:37;100160.22;;;13.14;100.00
10060;BME280;5069;49.306;8.636;2023-04-29T01:19:50;100172.38;;;13.18;100.00
10060;BME280;5069;49.306;8.636;2023-04-29T01:22:54;100167.09;;;13.18;100.00
10060;BME280;5069;49.306;8.636;2023-04-29T01:25:57;100162.44;;;13.23;100.00
10060;BME280;5069;49.306;8.636;2023-04-29T01:39:36;100178.19;;;13.27;100.00
10060;BME280;5069;49.306;8.636;2023-04-29T01:43:14;100168.28;;;13.30;100.00
10060;BME280;5069;49.306;8.636;2023-04-29T01:46:21;100177.03;;;13.32;100.00
10060;BME280;5069;49.306;8.636;2023-04-29T01:49:25;100180.97;;;13.23;100.00
10060;BME280;5069;49.306;8.636;2023-04-29T01:52:27;100172.31;;;13.20;100.00
10060;BME280;5069;49.306;8.636;2023-04-29T01:55:30;100173.72;;;13.27;100.00
10060;BME280;5069;49.306;8.636;2023-04-29T01:58:46;100178.81;;;13.32;100.00
10060;BME280;5069;49.306;8.636;2023-04-29T02:02:06;100168.00;;;13.36;100.00
10060;BME280;5069;49.306;8.636;2023-04-29T02:05:11;100177.78;;;13.34;100.00
10060;BME280;5069;49.306;8.636;2023-04-29T02:08:18;100177.31;;;13.26;100.00
10060;BME280;5069;49.306;8.636;2023-04-29T02:11:20;100181.03;;;13.22;100.00
10060;BME280;5069;49.306;8.636;2023-04-29T02:14:22;100185.25;;;13.26;100.00
10060;BME280;5069;49.306;8.636;2023-04-29T02:17:24;100180.91;;;13.25;100.00
10060;BME280;5069;49.306;8.636;2023-04-29T02:20:26;100191.41;;;13.27;100.00
10060;BME280;5069;49.306;8.636;2023-04-29T02:23:29;100185.16;;;13.28;100.00
10060;BME280;5069;49.306;8.636;2023-04-29T02:26:31;100191.19;;;13.31;100.00
10060;BME280;5069;49.306;8.636;2023-04-29T02:29:34;100194.88;;;13.27;100.00
10060;BME280;5069;49.306;8.636;2023-04-29T02:32:35;100200.19;;;13.27;100.00
10060;BME280;5069;49.306;8.636;2023-04-29T02:35:37;100195.75;;;13.28;100.00
10060;BME280;5069;49.306;8.636;2023-04-29T02:38:38;100194.13;;;13.25;100.00
10060;BME280;5069;49.306;8.636;2023-04-29T02:41:40;100203.91;;;13.23;100.00
10060;BME280;5069;49.306;8.636;2023-04-29T02:44:44;100216.50;;;13.18;100.00
10060;BME280;5069;49.306;8.636;2023-04-29T02:47:46;100213.94;;;13.16;100.00
10060;BME280;5069;49.306;8.636;2023-04-29T02:50:48;100209.50;;;13.17;100.00
10060;BME280;5069;49.306;8.636;2023-04-29T02:53:49;100205.94;;;13.18;100.00
10060;BME280;5069;49.306;8.636;2023-04-29T02:56:51;100216.06;;;13.08;100.00
10060;BME280;5069;49.306;8.636;2023-04-29T02:59:53;100209.66;;;13.14;100.00
10060;BME280;5069;49.306;8.636;2023-04-29T03:02:54;100211.38;;;13.15;100.00
10060;BME280;5069;49.306;8.636;2023-04-29T03:05:56;100217.31;;;13.20;100.00
10060;BME280;5069;49.306;8.636;2023-04-29T03:08:57;100212.78;;;13.22;100.00
10060;BME280;5069;49.306;8.636;2023-04-29T03:11:59;100214.66;;;13.20;100.00
10060;BME280;5069;49.306;8.636;2023-04-29T03:15:01;100218.47;;;13.14;100.00
10060;BME280;5069;49.306;8.636;2023-04-29T03:18:03;100222.97;;;13.11;100.00
10060;BME280;5069;49.306;8.636;2023-04-29T03:21:07;100223.06;;;13.09;100.00
10060;BME280;5069;49.306;8.636;2023-04-29T03:24:08;100215.03;;;13.11;100.00
10060;BME280;5069;49.306;8.636;2023-04-29T03:27:10;100214.94;;;13.14;100.00
10060;BME280;5069;49.306;8.636;2023-04-29T03:30:12;100207.59;;;13.20;100.00
10060;BME280;5069;49.306;8.636;2023-04-29T03:33:22;100214.38;;;13.26;100.00
10060;BME280;5069;49.306;8.636;2023-04-29T03:36:24;100202.75;;;13.29;100.00
10060;BME280;5069;49.306;8.636;2023-04-29T03:39:39;100207.06;;;13.31;100.00
10060;BME280;5069;49.306;8.636;2023-04-29T03:42:40;100208.78;;;13.32;100.00
10060;BME280;5069;49.306;8.636;2023-04-29T03:45:42;100213.22;;;13.32;100.00
10060;BME280;5069;49.306;8.636;2023-04-29T03:48:43;100213.41;;;13.27;100.00
10060;BME280;5069;49.306;8.636;2023-04-29T03:51:46;100215.88;;;13.32;100.00
10060;BME280;5069;49.306;8.636;2023-04-29T03:54:49;100212.19;;;13.34;100.00
10060;BME280;5069;49.306;8.636;2023-04-29T03:57:51;100222.97;;;13.31;100.00
10060;BME280;5069;49.306;8.636;2023-04-29T04:00:53;100225.81;;;13.27;100.00
10060;BME280;5069;49.306;8.636;2023-04-29T04:03:59;100226.81;;;13.24;100.00
10060;BME280;5069;49.306;8.636;2023-04-29T04:07:01;100230.53;;;13.20;100.00
10060;BME280;5069;49.306;8.636;2023-04-29T04:10:13;100235.84;;;13.20;100.00
10060;BME280;5069;49.306;8.636;2023-04-29T04:13:15;100239.41;;;13.19;100.00
10060;BME280;5069;49.306;8.636;2023-04-29T04:16:16;100243.78;;;13.20;100.00
10060;BME280;5069;49.306;8.636;2023-04-29T04:19:18;100245.56;;;13.19;100.00
10060;BME280;5069;49.306;8.636;2023-04-29T04:22:20;100250.91;;;13.18;100.00
10060;BME280;5069;49.306;8.636;2023-04-29T04:25:47;100256.84;;;13.23;100.00
10060;BME280;5069;49.306;8.636;2023-04-29T04:29:11;100262.94;;;13.25;100.00
10060;BME280;5069;49.306;8.636;2023-04-29T04:32:31;100257.59;;;13.27;100.00
10060;BME280;5069;49.306;8.636;2023-04-29T04:35:32;100265.44;;;13.28;100.00
10060;BME280;5069;49.306;8.636;2023-04-29T04:38:34;100270.03;;;13.24;100.00
10060;BME280;5069;49.306;8.636;2023-04-29T04:41:40;100278.19;;;13.20;100.00
10060;BME280;5069;49.306;8.636;2023-04-29T04:44:41;100276.31;;;13.22;100.00
10060;BME280;5069;49.306;8.636;2023-04-29T04:47:48;100277.09;;;13.24;100.00
10060;BME280;5069;49.306;8.636;2023-04-29T04:51:06;100283.38;;;13.21;100.00
10060;BME280;5069;49.306;8.636;2023-04-29T04:54:08;100282.75;;;13.16;100.00
10060;BME280;5069;49.306;8.636;2023-04-29T04:57:09;100281.06;;;13.15;100.00
10060;BME280;5069;49.306;8.636;2023-04-29T05:00:12;100295.28;;;13.13;100.00
10060;BME280;5069;49.306;8.636;2023-04-29T05:03:13;100297.75;;;13.16;100.00
10060;BME280;5069;49.306;8.636;2023-04-29T05:06:15;100305.53;;;13.20;100.00
10060;BME280;5069;49.306;8.636;2023-04-29T05:09:20;100314.97;;;13.26;100.00
10060;BME280;5069;49.306;8.636;2023-04-29T05:12:22;100315.09;;;13.23;100.00
10060;BME280;5069;49.306;8.636;2023-04-29T05:15:25;100321.19;;;13.25;100.00
10060;BME280;5069;49.306;8.636;2023-04-29T05:18:30;100332.34;;;13.32;100.00
10060;BME280;5069;49.306;8.636;2023-04-29T05:21:33;100330.63;;;13.31;100.00
10060;BME280;5069;49.306;8.636;2023-04-29T05:24:35;100332.56;;;13.46;100.00
10060;BME280;5069;49.306;8.636;2023-04-29T05:27:36;100336.06;;;13.46;100.00
10060;BME280;5069;49.306;8.636;2023-04-29T05:30:42;100338.28;;;13.37;100.00
10060;BME280;5069;49.306;8.636;2023-04-29T05:33:44;100339.94;;;13.39;100.00
10060;BME280;5069;49.306;8.636;2023-04-29T05:36:45;100343.59;;;13.37;100.00
10060;BME280;5069;49.306;8.636;2023-04-29T05:39:47;100347.16;;;13.36;100.00
10060;BME280;5069;49.306;8.636;2023-04-29T05:42:51;100355.97;;;13.36;100.00
10060;BME280;5069;49.306;8.636;2023-04-29T05:45:53;100351.47;;;13.38;100.00
10060;BME280;5069;49.306;8.636;2023-04-29T05:48:54;100356.91;;;13.35;100.00
10060;BME280;5069;49.306;8.636;2023-04-29T05:51:56;100355.16;;;13.34;100.00
10060;BME280;5069;49.306;8.636;2023-04-29T05:54:57;100361.25;;;13.36;100.00
10060;BME280;5069;49.306;8.636;2023-04-29T05:57:59;100367.47;;;13.35;100.00
10060;BME280;5069;49.306;8.636;2023-04-29T06:01:00;100370.06;;;13.37;100.00
10060;BME280;5069;49.306;8.636;2023-04-29T06:04:02;100370.94;;;13.37;100.00
10060;BME280;5069;49.306;8.636;2023-04-29T06:07:33;100370.94;;;13.37;100.00
10060;BME280;5069;49.306;8.636;2023-04-29T06:10:44;100369.34;;;13.33;100.00
10060;BME280;5069;49.306;8.636;2023-04-29T06:13:46;100377.38;;;13.32;100.00
10060;BME280;5069;49.306;8.636;2023-04-29T06:16:48;100386.38;;;13.46;100.00
10060;BME280;5069;49.306;8.636;2023-04-29T06:19:49;100388.13;;;13.47;100.00
10060;BME280;5069;49.306;8.636;2023-04-29T06:22:52;100388.13;;;13.66;100.00
10060;BME280;5069;49.306;8.636;2023-04-29T06:25:53;100389.75;;;13.69;100.00
10060;BME280;5069;49.306;8.636;2023-04-29T06:28:55;100389.84;;;13.67;100.00
10060;BME280;5069;49.306;8.636;2023-04-29T06:31:57;100400.25;;;13.72;100.00
10060;BME280;5069;49.306;8.636;2023-04-29T06:34:59;100398.16;;;13.59;100.00
10060;BME280;5069;49.306;8.636;2023-04-29T06:38:21;100407.03;;;13.58;100.00
10060;BME280;5069;49.306;8.636;2023-04-29T06:41:53;100409.88;;;13.54;100.00
10060;BME280;5069;49.306;8.636;2023-04-29T06:45:14;100414.16;;;13.56;100.00
10060;BME280;5069;49.306;8.636;2023-04-29T06:48:30;100411.34;;;13.61;100.00
10060;BME280;5069;49.306;8.636;2023-04-29T06:51:31;100414.03;;;13.59;100.00
10060;BME280;5069;49.306;8.636;2023-04-29T06:54:33;100421.06;;;13.60;100.00
10060;BME280;5069;49.306;8.636;2023-04-29T06:57:35;100417.56;;;13.60;100.00
10060;BME280;5069;49.306;8.636;2023-04-29T07:00:37;100420.63;;;13.70;100.00
10060;BME280;5069;49.306;8.636;2023-04-29T07:03:38;100430.38;;;13.69;100.00
10060;BME280;5069;49.306;8.636;2023-04-29T07:06:40;100427.50;;;13.74;100.00
10060;BME280;5069;49.306;8.636;2023-04-29T07:09:42;100434.47;;;13.76;100.00
10060;BME280;5069;49.306;8.636;2023-04-29T07:12:43;100439.25;;;13.87;100.00
10060;BME280;5069;49.306;8.636;2023-04-29T07:15:45;100453.22;;;13.90;100.00
10060;BME280;5069;49.306;8.636;2023-04-29T07:18:47;100453.50;;;13.84;100.00
10060;BME280;5069;49.306;8.636;2023-04-29T07:21:49;100459.44;;;13.71;100.00
10060;BME280;5069;49.306;8.636;2023-04-29T07:24:54;100463.66;;;13.75;100.00
10060;BME280;5069;49.306;8.636;2023-04-29T07:27:56;100470.53;;;13.79;100.00
10060;BME280;5069;49.306;8.636;2023-04-29T07:30:59;100485.09;;;13.89;100.00
10060;BME280;5069;49.306;8.636;2023-04-29T07:34:01;100480.00;;;13.84;100.00
10060;BME280;5069;49.306;8.636;2023-04-29T07:37:02;100483.78;;;13.79;100.00
10060;BME280;5069;49.306;8.636;2023-04-29T07:40:04;100486.03;;;13.88;100.00
10060;BME280;5069;49.306;8.636;2023-04-29T07:43:06;100489.09;;;13.79;100.00
10060;BME280;5069;49.306;8.636;2023-04-29T07:46:09;100491.06;;;13.74;100.00
10060;BME280;5069;49.306;8.636;2023-04-29T07:49:12;100497.13;;;13.77;100.00
10060;BME280;5069;49.306;8.636;2023-04-29T07:52:13;100501.38;;;13.61;100.00
10060;BME280;5069;49.306;8.636;2023-04-29T07:55:15;100508.66;;;13.56;100.00
10060;BME280;5069;49.306;8.636;2023-04-29T07:58:17;100521.38;;;13.48;100.00
10060;BME280;5069;49.306;8.636;2023-04-29T08:01:18;100523.03;;;13.30;100.00
10060;BME280;5069;49.306;8.636;2023-04-29T08:04:21;100524.00;;;13.28;100.00
10060;BME280;5069;49.306;8.636;2023-04-29T08:07:31;100518.59;;;13.31;100.00
10060;BME280;5069;49.306;8.636;2023-04-29T08:10:37;100519.72;;;13.25;100.00
10060;BME280;5069;49.306;8.636;2023-04-29T08:13:42;100531.19;;;13.04;100.00
10060;BME280;5069;49.306;8.636;2023-04-29T08:16:44;100529.56;;;13.00;100.00
10060;BME280;5069;49.306;8.636;2023-04-29T08:19:45;100531.44;;;12.98;100.00
10060;BME280;5069;49.306;8.636;2023-04-29T08:22:46;100528.97;;;12.93;100.00
10060;BME280;5069;49.306;8.636;2023-04-29T08:25:48;100529.81;;;12.94;100.00
10060;BME280;5069;49.306;8.636;2023-04-29T08:28:52;100538.00;;;12.88;100.00
10060;BME280;5069;49.306;8.636;2023-04-29T08:31:53;100541.84;;;12.80;100.00
10060;BME280;5069;49.306;8.636;2023-04-29T08:34:55;100532.72;;;12.88;100.00
10060;BME280;5069;49.306;8.636;2023-04-29T08:37:57;100546.09;;;12.84;100.00
10060;BME280;5069;49.306;8.636;2023-04-29T08:40:58;100544.34;;;12.83;100.00
10060;BME280;5069;49.306;8.636;2023-04-29T08:44:01;100543.19;;;12.91;100.00
10060;BME280;5069;49.306;8.636;2023-04-29T08:47:02;100547.41;;;12.95;100.00
10060;BME280;5069;49.306;8.636;2023-04-29T08:50:05;100547.16;;;13.01;100.00
10060;BME280;5069;49.306;8.636;2023-04-29T08:53:08;100555.72;;;13.07;100.00
10060;BME280;5069;49.306;8.636;2023-04-29T08:56:15;100550.28;;;13.10;100.00
10060;BME280;5069;49.306;8.636;2023-04-29T08:59:22;100556.78;;;13.25;100.00
10060;BME280;5069;49.306;8.636;2023-04-29T09:02:24;100556.72;;;13.27;100.00
10060;BME280;5069;49.306;8.636;2023-04-29T09:05:27;100559.28;;;13.28;100.00
10060;BME280;5069;49.306;8.636;2023-04-29T09:08:29;100552.81;;;13.35;100.00
10060;BME280;5069;49.306;8.636;2023-04-29T09:11:31;100557.59;;;13.47;100.00
10060;BME280;5069;49.306;8.636;2023-04-29T09:14:32;100563.34;;;13.57;100.00
10060;BME280;5069;49.306;8.636;2023-04-29T09:17:47;100569.25;;;13.63;100.00
10060;BME280;5069;49.306;8.636;2023-04-29T09:20:48;100572.22;;;13.56;100.00
10060;BME280;5069;49.306;8.636;2023-04-29T09:23:52;100569.66;;;13.54;100.00
10060;BME280;5069;49.306;8.636;2023-04-29T09:26:54;100570.25;;;13.61;100.00
10060;BME280;5069;49.306;8.636;2023-04-29T09:29:59;100569.84;;;13.70;100.00
10060;BME280;5069;49.306;8.636;2023-04-29T09:33:06;100566.19;;;13.73;100.00
10060;BME280;5069;49.306;8.636;2023-04-29T09:36:09;100573.31;;;13.91;100.00
10060;BME280;5069;49.306;8.636;2023-04-29T09:39:18;100574.13;;;13.93;100.00
10060;BME280;5069;49.306;8.636;2023-04-29T09:42:20;100578.78;;;13.88;100.00
10060;BME280;5069;49.306;8.636;2023-04-29T09:45:35;100578.50;;;13.94;100.00
10060;BME280;5069;49.306;8.636;2023-04-29T09:48:37;100584.59;;;13.96;100.00
10060;BME280;5069;49.306;8.636;2023-04-29T09:51:51;100585.53;;;13.95;100.00
10060;BME280;5069;49.306;8.636;2023-04-29T09:55:03;100587.59;;;13.88;100.00
10060;BME280;5069;49.306;8.636;2023-04-29T09:58:05;100581.38;;;14.08;100.00
10060;BME280;5069;49.306;8.636;2023-04-29T10:01:08;100583.16;;;14.28;100.00
10060;BME280;5069;49.306;8.636;2023-04-29T10:04:10;100588.78;;;14.40;100.00
10060;BME280;5069;49.306;8.636;2023-04-29T10:07:14;100583.78;;;14.33;100.00
10060;BME280;5069;49.306;8.636;2023-04-29T10:10:17;100582.94;;;14.32;100.00
10060;BME280;5069;49.306;8.636;2023-04-29T10:13:20;100588.78;;;14.40;100.00
10060;BME280;5069;49.306;8.636;2023-04-29T10:16:28;100585.19;;;14.41;100.00
10060;BME280;5069;49.306;8.636;2023-04-29T10:19:32;100583.34;;;14.43;100.00
10060;BME280;5069;49.306;8.636;2023-04-29T10:25:46;100585.22;;;14.21;99.52
10060;BME280;5069;49.306;8.636;2023-04-29T10:28:49;100588.31;;;14.31;100.00
10060;BME280;5069;49.306;8.636;2023-04-29T10:31:52;100588.06;;;14.37;99.98
10060;BME280;5069;49.306;8.636;2023-04-29T10:34:54;100577.31;;;14.40;96.40
10060;BME280;5069;49.306;8.636;2023-04-29T10:37:58;100588.69;;;14.42;93.45
10060;BME280;5069;49.306;8.636;2023-04-29T10:41:08;100587.22;;;14.55;94.81
10060;BME280;5069;49.306;8.636;2023-04-29T10:44:10;100584.03;;;14.66;90.76
10060;BME280;5069;49.306;8.636;2023-04-29T10:47:18;100583.63;;;14.75;86.86
10060;BME280;5069;49.306;8.636;2023-04-29T10:50:20;100576.84;;;14.86;88.59
10060;BME280;5069;49.306;8.636;2023-04-29T10:53:22;100570.75;;;15.03;86.39
10060;BME280;5069;49.306;8.636;2023-04-29T10:56:35;100569.03;;;15.19;87.19
10060;BME280;5069;49.306;8.636;2023-04-29T11:02:38;100569.53;;;15.62;83.84
10060;BME280;5069;49.306;8.636;2023-04-29T11:05:40;100577.38;;;15.65;83.24
10060;BME280;5069;49.306;8.636;2023-04-29T11:08:42;100574.41;;;15.54;80.60
10060;BME280;5069;49.306;8.636;2023-04-29T11:11:53;100566.78;;;15.29;81.53
10060;BME280;5069;49.306;8.636;2023-04-29T11:14:59;100570.28;;;15.29;83.95
10060;BME280;5069;49.306;8.636;2023-04-29T11:18:10;100560.53;;;15.30;83.17
10060;BME280;5069;49.306;8.636;2023-04-29T11:21:12;100561.75;;;15.59;81.06
10060;BME280;5069;49.306;8.636;2023-04-29T11:24:14;100555.16;;;15.83;80.84
10060;BME280;5069;49.306;8.636;2023-04-29T11:27:18;100555.66;;;15.90;81.25
10060;BME280;5069;49.306;8.636;2023-04-29T11:30:20;100559.00;;;16.10;76.50
10060;BME280;5069;49.306;8.636;2023-04-29T11:33:23;100551.78;;;16.12;77.11
10060;BME280;5069;49.306;8.636;2023-04-29T11:36:25;100553.28;;;15.68;77.93
10060;BME280;5069;49.306;8.636;2023-04-29T11:39:27;100555.50;;;15.60;80.90
10060;BME280;5069;49.306;8.636;2023-04-29T11:42:28;100552.03;;;15.75;81.50
10060;BME280;5069;49.306;8.636;2023-04-29T11:45:34;100561.81;;;15.75;78.64
10060;BME280;5069;49.306;8.636;2023-04-29T11:48:36;100569.84;;;15.73;79.55
10060;BME280;5069;49.306;8.636;2023-04-29T11:51:37;100571.66;;;15.73;80.59
10060;BME280;5069;49.306;8.636;2023-04-29T11:54:39;100577.06;;;15.71;78.15
10060;BME280;5069;49.306;8.636;2023-04-29T11:57:41;100578.00;;;15.53;79.12
10060;BME280;5069;49.306;8.636;2023-04-29T12:00:45;100579.09;;;15.66;79.74
10060;BME280;5069;49.306;8.636;2023-04-29T12:03:48;100579.78;;;15.52;80.24
10060;BME280;5069;49.306;8.636;2023-04-29T12:06:51;100584.38;;;15.49;80.94
10060;BME280;5069;49.306;8.636;2023-04-29T12:10:02;100580.88;;;15.48;81.28
10060;BME280;5069;49.306;8.636;2023-04-29T12:13:16;100579.56;;;15.57;81.81
10060;BME280;5069;49.306;8.636;2023-04-29T12:16:20;100583.94;;;15.58;83.34
10060;BME280;5069;49.306;8.636;2023-04-29T12:19:21;100587.53;;;15.57;83.59
10060;BME280;5069;49.306;8.636;2023-04-29T12:22:33;100587.75;;;15.52;83.80
10060;BME280;5069;49.306;8.636;2023-04-29T12:25:34;100592.56;;;15.44;83.22
10060;BME280;5069;49.306;8.636;2023-04-29T12:28:36;100598.72;;;15.27;84.75
10060;BME280;5069;49.306;8.636;2023-04-29T12:31:38;100606.22;;;15.19;85.33
10060;BME280;5069;49.306;8.636;2023-04-29T12:34:39;100606.25;;;14.82;84.43
10060;BME280;5069;49.306;8.636;2023-04-29T12:37:41;100601.41;;;14.92;86.56
10060;BME280;5069;49.306;8.636;2023-04-29T12:40:43;100605.97;;;14.88;87.47
10060;BME280;5069;49.306;8.636;2023-04-29T12:43:44;100606.25;;;15.01;88.03
10060;BME280;5069;49.306;8.636;2023-04-29T12:46:46;100604.94;;;15.09;87.07
10060;BME280;5069;49.306;8.636;2023-04-29T12:49:48;100606.53;;;15.13;85.58
10060;BME280;5069;49.306;8.636;2023-04-29T12:52:50;100607.31;;;15.32;85.04
10060;BME280;5069;49.306;8.636;2023-04-29T12:55:52;100618.97;;;15.30;82.46
10060;BME280;5069;49.306;8.636;2023-04-29T12:58:54;100608.47;;;15.27;80.64
10060;BME280;5069;49.306;8.636;2023-04-29T13:01:55;100603.59;;;15.37;81.35
10060;BME280;5069;49.306;8.636;2023-04-29T13:04:57;100607.31;;;15.32;78.66
10060;BME280;5069;49.306;8.636;2023-04-29T13:08:00;100608.66;;;15.41;82.37
10060;BME280;5069;49.306;8.636;2023-04-29T13:11:01;100617.03;;;15.51;79.55
10060;BME280;5069;49.306;8.636;2023-04-29T13:14:06;100616.78;;;15.38;80.04
10060;BME280;5069;49.306;8.636;2023-04-29T13:17:08;100615.38;;;15.31;80.49
10060;BME280;5069;49.306;8.636;2023-04-29T13:20:11;100609.22;;;15.30;82.03
10060;BME280;5069;49.306;8.636;2023-04-29T13:23:13;100622.31;;;15.34;81.43
10060;BME280;5069;49.306;8.636;2023-04-29T13:26:14;100616.47;;;15.44;81.53
10060;BME280;5069;49.306;8.636;2023-04-29T13:29:16;100621.13;;;15.58;80.63
10060;BME280;5069;49.306;8.636;2023-04-29T13:32:18;100615.97;;;15.72;79.89
10060;BME280;5069;49.306;8.636;2023-04-29T13:35:25;100615.66;;;15.78;78.98
10060;BME280;5069;49.306;8.636;2023-04-29T13:38:26;100618.78;;;15.86;77.85
10060;BME280;5069;49.306;8.636;2023-04-29T13:41:28;100615.97;;;15.72;78.72
10060;BME280;5069;49.306;8.636;2023-04-29T13:44:35;100627.81;;;15.48;77.94
10060;BME280;5069;49.306;8.636;2023-04-29T13:47:53;100621.38;;;15.35;81.29
10060;BME280;5069;49.306;8.636;2023-04-29T13:51:14;100622.50;;;15.48;80.97
10060;BME280;5069;49.306;8.636;2023-04-29T13:54:36;100638.59;;;15.45;79.53
10060;BME280;5069;49.306;8.636;2023-04-29T13:57:57;100633.50;;;15.40;80.19
10060;BME280;5069;49.306;8.636;2023-04-29T14:01:01;100628.25;;;15.39;80.73
10060;BME280;5069;49.306;8.636;2023-04-29T14:04:24;100638.88;;;15.39;79.93
10060;BME280;5069;49.306;8.636;2023-04-29T14:07:26;100634.97;;;15.28;79.63
10060;BME280;5069;49.306;8.636;2023-04-29T14:10:27;100629.44;;;15.33;79.78
10060;BME280;5069;49.306;8.636;2023-04-29T14:13:29;100636.44;;;15.53;81.30
10060;BME280;5069;49.306;8.636;2023-04-29T14:16:31;100637.66;;;15.46;79.96
10060;BME280;5069;49.306;8.636;2023-04-29T14:19:33;100640.94;;;15.51;78.00
10060;BME280;5069;49.306;8.636;2023-04-29T14:22:36;100637.19;;;15.38;78.80
10060;BME280;5069;49.306;8.636;2023-04-29T14:25:37;100641.06;;;15.30;77.01
10060;BME280;5069;49.306;8.636;2023-04-29T14:28:39;100648.22;;;15.47;76.50
10060;BME280;5069;49.306;8.636;2023-04-29T14:31:41;100647.34;;;15.47;74.85
10060;BME280;5069;49.306;8.636;2023-04-29T14:34:42;100653.84;;;15.22;76.70
10060;BME280;5069;49.306;8.636;2023-04-29T14:37:44;100652.34;;;15.36;77.18
10060;BME280;5069;49.306;8.636;2023-04-29T14:40:46;100657.81;;;15.50;77.14
10060;BME280;5069;49.306;8.636;2023-04-29T14:43:48;100658.09;;;15.62;76.24
10060;BME280;5069;49.306;8.636;2023-04-29T14:46:49;100656.63;;;15.74;75.60
10060;BME280;5069;49.306;8.636;2023-04-29T14:49:51;100651.00;;;15.63;73.56
10060;BME280;5069;49.306;8.636;2023-04-29T14:52:52;100654.88;;;15.56;73.89
10060;BME280;5069;49.306;8.636;2023-04-29T14:55:54;100663.03;;;15.70;76.19
10060;BME280;5069;49.306;8.636;2023-04-29T14:58:55;100661.38;;;15.67;73.82
10060;BME280;5069;49.306;8.636;2023-04-29T15:01:57;100663.47;;;15.61;73.83
10060;BME280;5069;49.306;8.636;2023-04-29T15:04:58;100666.13;;;15.61;73.02
10060;BME280;5069;49.306;8.636;2023-04-29T15:08:00;100665.13;;;15.63;71.41
10060;BME280;5069;49.306;8.636;2023-04-29T15:11:02;100660.47;;;15.50;71.80
10060;BME280;5069;49.306;8.636;2023-04-29T15:14:03;100669.19;;;15.53;72.46
10060;BME280;5069;49.306;8.636;2023-04-29T15:17:05;100663.47;;;15.61;74.64
10060;BME280;5069;49.306;8.636;2023-04-29T15:20:08;100662.25;;;15.68;72.93
10060;BME280;5069;49.306;8.636;2023-04-29T15:23:11;100664.28;;;15.63;73.08
10060;BME280;5069;49.306;8.636;2023-04-29T15:26:12;100668.19;;;15.90;73.15
10060;BME280;5069;49.306;8.636;2023-04-29T15:29:14;100665.69;;;16.22;70.57
10060;BME280;5069;49.306;8.636;2023-04-29T15:32:16;100663.44;;;16.80;70.51
10060;BME280;5069;49.306;8.636;2023-04-29T15:35:17;100659.47;;;17.34;64.67
10060;BME280;5069;49.306;8.636;2023-04-29T15:38:19;100657.84;;;17.31;64.26
10060;BME280;5069;49.306;8.636;2023-04-29T15:41:21;100662.75;;;17.39;64.62
10060;BME280;5069;49.306;8.636;2023-04-29T15:44:22;100667.09;;;17.71;60.78
10060;BME280;5069;49.306;8.636;2023-04-29T15:47:24;100667.81;;;17.28;60.68
10060;BME280;5069;49.306;8.636;2023-04-29T15:50:25;100669.66;;;16.96;62.78
10060;BME280;5069;49.306;8.636;2023-04-29T15:53:27;100679.63;;;16.60;65.77
10060;BME280;5069;49.306;8.636;2023-04-29T15:56:28;100675.53;;;16.20;68.71
10060;BME280;5069;49.306;8.636;2023-04-29T15:59:31;100679.63;;;16.09;71.65
10060;BME280;5069;49.306;8.636;2023-04-29T16:02:32;100690.94;;;16.13;71.95
10060;BME280;5069;49.306;8.636;2023-04-29T16:05:34;100684.06;;;16.09;72.55
10060;BME280;5069;49.306;8.636;2023-04-29T16:08:37;100680.59;;;16.24;72.29
10060;BME280;5069;49.306;8.636;2023-04-29T16:11:38;100688.53;;;16.08;73.12
10060;BME280;5069;49.306;8.636;2023-04-29T16:14:40;100679.44;;;15.95;73.35
10060;BME280;5069;49.306;8.636;2023-04-29T16:17:41;100687.91;;;15.86;74.03
10060;BME280;5069;49.306;8.636;2023-04-29T16:20:43;100685.50;;;15.82;74.22
10060;BME280;5069;49.306;8.636;2023-04-29T16:23:45;100692.28;;;15.87;74.77
10060;BME280;5069;49.306;8.636;2023-04-29T16:26:47;100691.34;;;15.88;73.34